Time;durP1;ratioP1;P1;durP2;ratioP2;P2;SDS_P1;SDS_P2;PMS_P1;PMS_P2;Temp;Humidity;BMP_temperature;BMP_pressure;BME280_temperature;BME280_humidity;BME280_pressure;Samples;Min_cycle;Max_cycle;Signal;HPM_P1;HPM_P2
2022/11/08 00:01:30;;;;;;;16.37;4.70;;;8.90;26.00;;;;;;5037936;28;20524;-89
2022/11/08 00:04:15;;;;;;;11.40;4.00;;;8.90;27.50;;;;;;5053556;28;20492;-89
2022/11/08 00:19:43;;;;;;;10.70;3.23;;;8.90;20.70;;;;;;5039751;28;20438;-83
2022/11/08 00:25:38;;;;;;;6.93;3.63;;;8.80;21.40;;;;;;5042213;28;20452;-83
2022/11/08 00:28:55;;;;;;;10.07;3.40;;;8.70;17.30;;;;;;5052495;28;20897;-89
2022/11/08 00:31:44;;;;;;;9.70;3.50;;;8.70;18.10;;;;;;5052776;28;20434;-89
2022/11/08 00:37:31;;;;;;;5.43;2.60;;;8.60;12.70;;;;;;5054124;28;20443;-89
2022/11/08 00:53:25;;;;;;;8.23;3.70;;;8.30;9.50;;;;;;5053336;28;20452;-89
2022/11/08 00:59:15;;;;;;;13.17;3.70;;;8.20;11.50;;;;;;5038111;28;20171;-89
2022/11/08 01:08:32;;;;;;;5.33;3.30;;;8.00;15.80;;;;;;5053629;28;20999;-89
2022/11/08 01:14:50;;;;;;;15.30;4.00;;;7.90;16.20;;;;;;5042731;28;20414;-83
2022/11/08 01:17:50;;;;;;;10.20;4.03;;;7.90;16.80;;;;;;5052891;28;20469;-84
2022/11/08 01:20:20;;;;;;;4.93;3.70;;;7.80;17.20;;;;;;5039664;28;20795;-84
2022/11/08 01:26:12;;;;;;;15.13;3.77;;;7.80;16.60;;;;;;5044916;28;20440;-84
2022/11/08 01:35:26;;;;;;;7.73;4.00;;;7.70;12.60;;;;;;5056388;28;20498;-83
2022/11/08 01:38:20;;;;;;;9.73;3.43;;;7.70;12.20;;;;;;5052776;28;20469;-83
2022/11/08 01:41:21;;;;;;;10.60;4.07;;;7.60;12.50;;;;;;5057035;28;20507;-83
2022/11/08 01:47:08;;;;;;;10.90;4.47;;;7.60;14.10;;;;;;5048150;28;20461;-89
2022/11/08 01:52:55;;;;;;;15.50;4.40;;;7.50;16.70;;;;;;5055637;28;20206;-89
2022/11/08 01:55:50;;;;;;;9.40;3.90;;;7.50;17.30;;;;;;5056009;28;20418;-89
2022/11/08 01:58:22;;;;;;;7.43;4.00;;;7.40;18.30;;;;;;5056079;28;20250;-89
2022/11/08 02:00:48;;;;;;;11.90;3.97;;;7.40;18.50;;;;;;5039415;28;20464;-89
2022/11/08 02:06:38;;;;;;;12.40;3.80;;;7.40;18.90;;;;;;5054059;28;20426;-89
2022/11/08 02:09:43;;;;;;;12.07;4.57;;;7.30;18.70;;;;;;5039574;28;20524;-89
2022/11/08 02:12:27;;;;;;;15.40;4.30;;;7.30;19.20;;;;;;5049076;28;20469;-89
2022/11/08 02:14:56;;;;;;;17.63;4.37;;;7.30;18.90;;;;;;5045223;28;20801;-84
2022/11/08 02:21:27;;;;;;;16.80;4.03;;;7.20;19.90;;;;;;5052472;28;20523;-84
2022/11/08 02:23:55;;;;;;;9.43;4.50;;;7.10;18.50;;;;;;5046094;28;20434;-83
2022/11/08 02:26:51;;;;;;;15.77;4.67;;;7.10;18.50;;;;;;5054417;28;20429;-84
2022/11/08 02:30:01;;;;;;;15.27;4.20;;;7.10;19.90;;;;;;5045519;28;20441;-84
2022/11/08 02:35:53;;;;;;;14.60;4.50;;;7.00;20.00;;;;;;5042368;28;20386;-83
2022/11/08 02:41:44;;;;;;;6.70;4.40;;;6.90;21.10;;;;;;5044504;28;20477;-83
2022/11/08 02:47:40;;;;;;;7.97;4.00;;;6.90;21.30;;;;;;5050386;28;20418;-89
2022/11/08 02:56:50;;;;;;;7.97;3.93;;;6.80;20.10;;;;;;5044607;28;20476;-89
2022/11/08 02:59:26;;;;;;;15.10;4.00;;;6.70;20.80;;;;;;5035341;28;20423;-90
2022/11/08 03:01:56;;;;;;;9.53;3.30;;;6.70;18.90;;;;;;5044082;28;20457;-89
2022/11/08 03:04:22;;;;;;;13.27;4.27;;;6.70;19.00;;;;;;5051294;28;20487;-90
2022/11/08 03:07:02;;;;;;;5.40;3.50;;;6.70;18.10;;;;;;5054559;28;20434;-90
2022/11/08 03:09:28;;;;;;;6.77;3.30;;;6.70;17.80;;;;;;5053079;28;20433;-90
2022/11/08 03:15:20;;;;;;;6.60;3.50;;;6.60;16.20;;;;;;5047136;28;20187;-83
2022/11/08 03:18:14;;;;;;;11.63;3.37;;;6.50;15.30;;;;;;5050201;28;20576;-83
2022/11/08 03:20:44;;;;;;;12.33;3.40;;;6.50;16.20;;;;;;5046096;28;20452;-84
2022/11/08 03:23:20;;;;;;;9.40;3.67;;;6.50;15.20;;;;;;5054851;28;20402;-83
2022/11/08 03:26:03;;;;;;;5.47;3.40;;;6.50;13.20;;;;;;5050545;28;20418;-83
2022/11/08 03:28:44;;;;;;;11.83;3.33;;;6.40;12.80;;;;;;5045908;28;20462;-89
2022/11/08 03:38:20;;;;;;;13.07;5.47;;;6.30;12.60;;;;;;5036891;28;20393;-83
2022/11/08 03:40:56;;;;;;;13.00;4.80;;;6.30;12.90;;;;;;5050103;28;20816;-83
2022/11/08 03:43:32;;;;;;;11.03;4.17;;;6.20;14.70;;;;;;5052818;28;20479;-83
2022/11/08 03:46:20;;;;;;;11.57;4.10;;;6.30;15.50;;;;;;5053179;28;20925;-90
2022/11/08 03:52:56;;;;;;;11.90;3.60;;;6.10;15.90;;;;;;5051211;28;20433;-90
2022/11/08 03:55:25;;;;;;;7.67;4.20;;;6.10;15.10;;;;;;5053325;28;20475;-90
2022/11/08 03:58:38;;;;;;;4.83;3.43;;;6.10;15.60;;;;;;5054373;28;20949;-90
2022/11/08 04:04:26;;;;;;;18.30;4.47;;;6.00;16.30;;;;;;5043141;28;20748;-90
2022/11/08 04:10:14;;;;;;;6.20;4.37;;;5.90;17.60;;;;;;5038351;28;20187;-90
2022/11/08 04:16:02;;;;;;;8.40;4.23;;;6.00;16.20;;;;;;5053120;28;20206;-85
2022/11/08 04:31:18;;;;;;;16.57;5.13;;;5.80;18.00;;;;;;5054008;28;20475;-90
2022/11/08 04:37:20;;;;;;;8.30;5.00;;;5.80;17.80;;;;;;5048192;28;20987;-90
2022/11/08 04:43:08;;;;;;;9.50;4.77;;;5.70;18.20;;;;;;5034212;28;20434;-90
2022/11/08 04:48:58;;;;;;;5.60;4.40;;;5.70;21.30;;;;;;5053907;28;20261;-90
2022/11/08 04:55:32;;;;;;;6.97;4.67;;;5.70;20.40;;;;;;5036041;28;20430;-89
2022/11/08 05:08:26;;;;;;;8.53;4.93;;;5.60;18.20;;;;;;5049025;28;20413;-89
2022/11/08 05:14:13;;;;;;;8.27;5.07;;;5.50;17.70;;;;;;5049991;28;20986;-89
2022/11/08 05:16:44;;;;;;;5.20;4.10;;;5.50;17.20;;;;;;5056343;28;20501;-83
2022/11/08 05:19:10;;;;;;;4.70;4.00;;;5.50;17.20;;;;;;5057091;28;20176;-83
2022/11/08 05:25:08;;;;;;;5.23;3.70;;;5.50;19.60;;;;;;5043472;28;20196;-83
2022/11/08 05:28:02;;;;;;;11.83;4.90;;;5.40;18.00;;;;;;5051825;28;21010;-83
2022/11/08 05:30:32;;;;;;;8.57;4.53;;;5.30;19.90;;;;;;5056890;28;20418;-89
2022/11/08 05:39:42;;;;;;;5.97;3.50;;;5.20;19.90;;;;;;5055801;28;20431;-85
2022/11/08 05:45:32;;;;;;;7.17;4.47;;;5.10;18.00;;;;;;5038997;28;20199;-85
2022/11/08 05:48:02;;;;;;;12.73;4.73;;;5.10;18.90;;;;;;5055537;28;20414;-85
2022/11/08 05:50:33;;;;;;;18.63;4.70;;;5.00;21.60;;;;;;5046060;28;20437;-78
2022/11/08 05:53:08;;;;;;;15.27;4.30;;;5.00;20.00;;;;;;5056310;28;20391;-78
2022/11/08 05:55:44;;;;;;;9.73;4.07;;;5.00;20.30;;;;;;5051123;28;20429;-77
2022/11/08 05:58:10;;;;;;;9.40;4.80;;;5.00;21.20;;;;;;5056259;28;20412;-78
2022/11/08 06:00:38;;;;;;;9.13;4.63;;;5.00;20.20;;;;;;5041801;28;20457;-79
2022/11/08 06:03:08;;;;;;;5.80;4.50;;;5.00;18.80;;;;;;5051127;28;20229;-78
2022/11/08 06:05:38;;;;;;;7.90;4.50;;;4.90;19.50;;;;;;5043464;28;20504;-77
2022/11/08 06:08:38;;;;;;;13.83;4.93;;;4.90;19.80;;;;;;5042669;28;20411;-78
2022/11/08 06:11:23;;;;;;;8.60;4.33;;;4.90;19.60;;;;;;5042292;28;20433;-77
2022/11/08 06:13:51;;;;;;;4.95;4.40;;;4.80;21.00;;;;;;5052788;28;20417;-77
2022/11/08 06:19:44;;;;;;;14.07;4.90;;;4.90;18.10;;;;;;5040917;28;20920;-84
2022/11/08 06:26:08;;;;;;;5.20;4.10;;;4.80;16.20;;;;;;5050995;28;20681;-84
2022/11/08 06:29:26;;;;;;;22.50;4.40;;;4.80;17.00;;;;;;5048722;28;20446;-83
2022/11/08 06:32:32;;;;;;;6.07;4.00;;;4.70;14.30;;;;;;5053092;28;20508;-78
2022/11/08 06:35:26;;;;;;;8.82;4.07;;;4.70;18.70;;;;;;5043139;28;20409;-79
2022/11/08 06:38:03;;;;;;;11.63;4.22;;;4.70;16.70;;;;;;5039945;28;20188;-78
2022/11/08 06:40:32;;;;;;;14.40;4.00;;;4.70;19.30;;;;;;5037274;28;20200;-78
2022/11/08 06:42:59;;;;;;;11.07;4.10;;;4.70;19.60;;;;;;5070797;28;20927;-78
2022/11/08 06:45:30;;;;;;;6.63;4.40;;;4.80;22.10;;;;;;5055701;28;20416;-82
2022/11/08 06:48:32;;;;;;;9.20;4.57;;;4.80;23.30;;;;;;5047298;28;20656;-85
2022/11/08 06:51:08;;;;;;;8.83;4.23;;;4.90;25.50;;;;;;5051558;28;20436;-83
2022/11/08 06:53:34;;;;;;;11.90;3.90;;;5.00;26.50;;;;;;5048525;28;20955;-69
2022/11/08 06:56:01;;;;;;;9.90;4.13;;;5.00;26.00;;;;;;5050321;28;20434;-71
2022/11/08 06:58:27;;;;;;;8.10;4.23;;;5.10;26.00;;;;;;5047185;28;20175;-68
2022/11/08 07:00:52;;;;;;;10.93;4.10;;;5.10;27.60;;;;;;5051193;28;20461;-70
2022/11/08 07:03:18;;;;;;;9.37;4.70;;;5.20;27.70;;;;;;5045686;28;20924;-70
2022/11/08 07:05:44;;;;;;;13.53;4.20;;;5.30;25.80;;;;;;5053932;28;20176;-70
2022/11/08 07:08:26;;;;;;;7.90;4.40;;;5.40;25.00;;;;;;5049210;28;20182;-79
2022/11/08 07:14:14;;;;;;;6.83;3.60;;;5.50;24.10;;;;;;5049909;28;20751;-79
2022/11/08 07:16:40;;;;;;;8.37;4.50;;;5.50;25.50;;;;;;5047536;28;20517;-76
2022/11/08 07:19:14;;;;;;;8.83;4.50;;;5.50;27.10;;;;;;5045461;28;20534;-76
2022/11/08 07:21:40;;;;;;;9.93;4.47;;;5.70;26.80;;;;;;5054010;28;20545;-76
2022/11/08 07:24:09;;;;;;;11.80;4.50;;;5.70;24.90;;;;;;5048114;28;20472;-76
2022/11/08 07:26:34;;;;;;;14.10;4.70;;;5.80;22.30;;;;;;5053657;28;20171;-76
2022/11/08 07:29:08;;;;;;;6.93;4.00;;;5.80;22.60;;;;;;5050502;28;20434;-76
2022/11/08 07:32:14;;;;;;;4.93;3.63;;;5.80;23.00;;;;;;5048227;28;20199;-80
2022/11/08 07:34:40;;;;;;;9.10;4.10;;;5.90;24.20;;;;;;5049868;28;20175;-78
2022/11/08 07:37:26;;;;;;;7.40;4.20;;;6.00;23.10;;;;;;5048205;28;20487;-78
2022/11/08 07:39:52;;;;;;;7.70;4.80;;;6.10;23.50;;;;;;5050995;28;20666;-78
2022/11/08 07:42:18;;;;;;;7.07;4.37;;;6.10;26.00;;;;;;5046138;28;20546;-79
2022/11/08 07:44:44;;;;;;;11.00;4.53;;;6.30;25.80;;;;;;5039217;28;20175;-78
2022/11/08 07:47:15;;;;;;;9.80;4.40;;;6.40;26.10;;;;;;5043031;28;20560;-78
2022/11/08 07:49:40;;;;;;;13.40;4.67;;;6.50;25.60;;;;;;5034419;28;20407;-78
2022/11/08 07:52:44;;;;;;;12.13;4.70;;;6.60;23.80;;;;;;5053195;28;20483;-79
2022/11/08 07:55:10;;;;;;;16.23;5.17;;;6.70;28.80;;;;;;5034321;28;20198;-78
2022/11/08 07:57:45;;;;;;;13.80;5.90;;;6.80;34.00;;;;;;5049072;28;20421;-76
2022/11/08 08:00:15;;;;;;;9.90;4.57;;;6.90;40.00;;;;;;5037809;28;20223;-78
2022/11/08 08:02:41;;;;;;;9.20;4.67;;;7.00;32.20;;;;;;5035410;28;20499;-79
2022/11/08 08:05:14;;;;;;;12.70;4.30;;;7.10;28.80;;;;;;5049641;28;21027;-79
2022/11/08 08:07:44;;;;;;;8.73;4.77;;;7.10;26.50;;;;;;5040445;28;20187;-80
2022/11/08 08:10:28;;;;;;;7.50;4.20;;;7.20;24.50;;;;;;5054167;28;20435;-78
2022/11/08 08:12:57;;;;;;;8.00;4.43;;;7.20;24.80;;;;;;5043823;28;20543;-78
2022/11/08 08:15:33;;;;;;;8.27;4.40;;;7.20;23.80;;;;;;5033962;28;20944;-79
2022/11/08 08:18:03;;;;;;;11.83;4.40;;;7.20;23.20;;;;;;5054937;28;20503;-77
2022/11/08 08:20:33;;;;;;;5.70;3.83;;;7.30;22.60;;;;;;5039547;28;20459;-77
2022/11/08 08:22:59;;;;;;;12.60;4.80;;;7.30;22.60;;;;;;5047658;28;20521;-77
2022/11/08 08:25:38;;;;;;;10.77;4.37;;;7.40;20.20;;;;;;5035624;28;20391;-77
2022/11/08 08:28:38;;;;;;;16.80;4.60;;;7.40;18.10;;;;;;5054746;28;20418;-77
2022/11/08 08:31:26;;;;;;;9.80;4.60;;;7.40;17.70;;;;;;5048299;28;20457;-77
2022/11/08 08:33:52;;;;;;;8.63;4.20;;;7.40;16.60;;;;;;5045429;28;20414;-79
2022/11/08 08:36:20;;;;;;;16.53;5.20;;;7.50;15.70;;;;;;5050799;28;20479;-78
2022/11/08 08:38:51;;;;;;;19.60;4.57;;;7.50;15.00;;;;;;5045981;28;20210;-79
2022/11/08 08:41:26;;;;;;;9.37;4.07;;;7.60;15.50;;;;;;5036997;28;20458;-78
2022/11/08 08:44:14;;;;;;;7.63;4.00;;;7.60;16.10;;;;;;5043398;28;20991;-78
2022/11/08 08:46:45;;;;;;;10.70;4.67;;;7.70;19.00;;;;;;5042772;28;20422;-77
2022/11/08 08:49:20;;;;;;;5.60;4.00;;;7.80;20.30;;;;;;5036534;28;20435;-77
2022/11/08 08:51:50;;;;;;;8.07;4.63;;;7.90;22.30;;;;;;5034875;28;20929;-77
2022/11/08 08:54:16;;;;;;;9.30;4.87;;;8.00;23.00;;;;;;5047178;28;20453;-80
2022/11/08 08:56:44;;;;;;;10.83;4.50;;;8.10;24.10;;;;;;5042058;28;20426;-78
2022/11/08 08:59:15;;;;;;;7.33;4.10;;;8.20;24.50;;;;;;5035719;28;20663;-79
2022/11/08 09:01:43;;;;;;;9.23;3.80;;;8.30;26.20;;;;;;5043571;28;20511;-69
2022/11/08 09:04:09;;;;;;;8.67;3.53;;;8.30;27.10;;;;;;5047636;28;20411;-69
2022/11/08 09:06:35;;;;;;;13.10;3.60;;;8.40;24.20;;;;;;5040433;28;20437;-69
2022/11/08 09:09:01;;;;;;;11.40;3.17;;;8.50;25.80;;;;;;5048843;28;20187;-69
2022/11/08 09:11:26;;;;;;;10.53;4.27;;;8.60;25.20;;;;;;5046585;28;20654;-69
2022/11/08 09:13:52;;;;;;;9.90;4.03;;;8.60;25.90;;;;;;5050080;28;20217;-70
2022/11/08 09:16:18;;;;;;;11.10;4.33;;;8.70;25.40;;;;;;5044246;28;20183;-70
2022/11/08 09:18:43;;;;;;;14.73;3.40;;;8.80;23.90;;;;;;5043464;28;20187;-69
2022/11/08 09:21:09;;;;;;;6.67;3.87;;;8.80;24.30;;;;;;5050650;28;20204;-69
2022/11/08 09:23:35;;;;;;;6.20;4.03;;;8.90;24.70;;;;;;5050099;28;20183;-69
2022/11/08 09:26:03;;;;;;;5.73;4.23;;;9.00;24.00;;;;;;5039989;28;20241;-69
2022/11/08 09:28:34;;;;;;;9.10;4.40;;;9.10;24.50;;;;;;5033367;28;20414;-69
2022/11/08 09:31:01;;;;;;;8.73;3.90;;;9.10;25.40;;;;;;5036220;28;20426;-69
2022/11/08 09:33:27;;;;;;;11.17;4.17;;;9.20;27.70;;;;;;5047159;28;20507;-70
2022/11/08 09:35:53;;;;;;;9.13;4.60;;;9.40;33.10;;;;;;5051568;28;20476;-70
2022/11/08 09:38:19;;;;;;;8.63;4.40;;;9.50;32.00;;;;;;5037831;28;20787;-70
2022/11/08 09:41:19;;;;;;;7.50;5.27;;;9.70;34.30;;;;;;5049171;28;20208;-70
2022/11/08 09:44:03;;;;;;;14.43;5.93;;;10.00;41.90;;;;;;5044433;28;20422;-70
2022/11/08 09:46:38;;;;;;;12.73;5.53;;;10.30;42.10;;;;;;5045019;28;20427;-70
2022/11/08 09:49:09;;;;;;;20.33;6.53;;;10.70;42.70;;;;;;5047191;28;20421;-69
2022/11/08 09:51:35;;;;;;;13.60;6.00;;;11.00;43.00;;;;;;5051759;28;20406;-70
2022/11/08 09:54:03;;;;;;;11.47;4.40;;;11.20;43.10;;;;;;5045402;28;20447;-70
2022/11/08 09:56:36;;;;;;;12.33;4.97;;;11.50;17.20;;;;;;5055525;28;20443;-70
2022/11/08 09:59:16;;;;;;;10.73;5.40;;;11.90;11.30;;;;;;5053811;28;20429;-70
2022/11/08 10:01:42;;;;;;;10.40;4.37;;;12.10;8.40;;;;;;5054017;28;20468;-70
2022/11/08 10:04:17;;;;;;;7.87;3.87;;;12.40;1.00;;;;;;5049640;28;20442;-69
2022/11/08 10:07:10;;;;;;;9.63;3.93;;;12.60;1.00;;;;;;5040690;28;20194;-69
2022/11/08 10:10:30;;;;;;;15.50;4.00;;;12.80;1.00;;;;;;5049284;28;20426;-70
2022/11/08 10:13:25;;;;;;;9.07;3.50;;;13.00;1.00;;;;;;4976253;28;20457;-70
2022/11/08 10:16:36;;;;;;;10.63;4.03;;;13.20;1.00;;;;;;4974633;28;20994;-70
2022/11/08 10:19:40;;;;;;;6.43;3.40;;;13.20;1.00;;;;;;4971514;28;20535;-70
2022/11/08 10:22:17;;;;;;;6.80;3.33;;;13.10;1.00;;;;;;4957947;28;20443;-70
2022/11/08 10:24:49;;;;;;;10.43;3.50;;;13.20;1.00;;;;;;4971566;28;20827;-70
2022/11/08 10:27:42;;;;;;;5.57;3.10;;;13.30;1.00;;;;;;4972208;28;20941;-69
2022/11/08 10:30:23;;;;;;;3.23;2.90;;;13.20;1.00;;;;;;4970102;28;20444;-69
2022/11/08 10:32:53;;;;;;;4.40;2.70;;;13.30;1.00;;;;;;4973644;28;21012;-69
2022/11/08 10:35:39;;;;;;;3.43;2.80;;;13.40;1.00;;;;;;4972076;28;20766;-69
2022/11/08 10:38:18;;;;;;;7.33;4.40;;;13.60;1.00;;;;;;4973555;28;20452;-70
2022/11/08 10:40:56;;;;;;;6.70;2.93;;;13.60;1.00;;;;;;4970450;28;20921;-70
2022/11/08 10:43:25;;;;;;;4.37;3.07;;;13.70;1.00;;;;;;4956939;28;20446;-70
2022/11/08 10:45:51;;;;;;;3.43;2.30;;;13.80;1.00;;;;;;4987245;28;20779;-70
2022/11/08 10:48:17;;;;;;;3.17;2.00;;;13.90;1.00;;;;;;5051825;28;20443;-70
2022/11/08 10:50:45;;;;;;;5.10;2.97;;;14.00;1.00;;;;;;5043855;28;20188;-70
2022/11/08 10:53:23;;;;;;;3.77;2.47;;;14.10;1.00;;;;;;5047307;28;20410;-70
2022/11/08 10:55:51;;;;;;;5.13;2.47;;;14.10;1.00;;;;;;5051443;28;20797;-70
2022/11/08 10:58:41;;;;;;;2.57;2.10;;;14.20;1.00;;;;;;5048443;28;20496;-70
2022/11/08 11:01:22;;;;;;;3.37;1.97;;;14.40;1.00;;;;;;4960792;28;20475;-70
2022/11/08 11:03:50;;;;;;;3.23;2.13;;;14.60;1.00;;;;;;4966671;28;20536;-69
2022/11/08 11:06:31;;;;;;;3.43;1.73;;;14.80;1.00;;;;;;4956433;28;20450;-69
2022/11/08 11:09:00;;;;;;;3.97;2.17;;;15.00;1.00;;;;;;4968894;28;20449;-70
2022/11/08 11:11:35;;;;;;;3.10;1.57;;;15.20;1.00;;;;;;4966475;28;20871;-70
2022/11/08 11:14:12;;;;;;;5.23;1.67;;;15.50;1.00;;;;;;4969624;28;20427;-70
2022/11/08 11:16:57;;;;;;;1.77;1.40;;;15.80;1.00;;;;;;4968883;28;20949;-70
2022/11/08 11:19:25;;;;;;;4.80;1.73;;;16.00;1.00;;;;;;4974111;28;20423;-70
2022/11/08 11:22:00;;;;;;;8.93;1.70;;;16.30;1.00;;;;;;4960334;28;20473;-69
2022/11/08 11:24:27;;;;;;;7.03;1.63;;;16.40;1.00;;;;;;4973344;28;20438;-69
2022/11/08 11:26:55;;;;;;;2.10;1.70;;;16.40;1.00;;;;;;4970166;28;20456;-69
2022/11/08 11:29:26;;;;;;;7.10;2.10;;;16.30;1.00;;;;;;4963077;28;20478;-69
2022/11/08 11:31:53;;;;;;;4.83;2.23;;;16.30;1.00;;;;;;4965340;28;20482;-69
2022/11/08 11:34:23;;;;;;;1.93;1.40;;;16.40;1.00;;;;;;4966791;28;20446;-70
2022/11/08 11:36:56;;;;;;;5.40;2.10;;;16.50;1.00;;;;;;4969862;28;20503;-70
2022/11/08 11:39:33;;;;;;;6.00;1.63;;;16.60;1.00;;;;;;5044683;28;20432;-70
2022/11/08 11:42:05;;;;;;;1.63;1.53;;;16.50;1.00;;;;;;5047387;28;20467;-70
2022/11/08 11:44:44;;;;;;;1.83;1.60;;;16.60;1.00;;;;;;5047230;28;20761;-70
2022/11/08 11:47:28;;;;;;;1.87;1.77;;;16.60;1.00;;;;;;5045912;28;20437;-70
2022/11/08 11:50:30;;;;;;;3.33;1.63;;;16.70;1.00;;;;;;5051309;28;20440;-83
2022/11/08 11:52:58;;;;;;;2.83;1.50;;;16.60;1.00;;;;;;5036301;28;20449;-76
2022/11/08 11:56:00;;;;;;;4.57;1.90;;;16.70;1.00;;;;;;5046577;28;20439;-77
2022/11/08 11:58:35;;;;;;;3.43;2.00;;;16.80;1.00;;;;;;5049761;28;20453;-77
2022/11/08 12:01:20;;;;;;;4.60;1.60;;;16.90;1.00;;;;;;5049314;28;20464;-77
2022/11/08 12:04:09;;;;;;;3.40;2.00;;;17.00;1.00;;;;;;5035264;28;20437;-77
2022/11/08 12:07:00;;;;;;;1.60;1.50;;;17.00;1.00;;;;;;5034492;28;20487;-77
2022/11/08 12:09:38;;;;;;;4.37;1.83;;;17.10;1.00;;;;;;5039586;28;20407;-76
2022/11/08 12:12:32;;;;;;;6.30;1.70;;;17.10;1.00;;;;;;5033852;28;20383;-77
2022/11/08 12:15:26;;;;;;;5.03;1.77;;;17.20;1.00;;;;;;5050545;28;20498;-76
2022/11/08 12:18:01;;;;;;;8.10;1.80;;;17.40;1.00;;;;;;5046208;28;20968;-76
2022/11/08 12:20:50;;;;;;;3.67;2.00;;;17.40;1.00;;;;;;5047252;28;20394;-79
2022/11/08 12:23:57;;;;;;;7.67;1.80;;;17.40;1.00;;;;;;5053441;28;20396;-76
2022/11/08 12:26:52;;;;;;;2.50;1.80;;;17.40;1.00;;;;;;5055994;28;20781;-76
2022/11/08 12:29:25;;;;;;;5.20;1.70;;;17.10;1.00;;;;;;5035154;28;20367;-77
2022/11/08 12:32:11;;;;;;;5.50;1.80;;;17.20;1.00;;;;;;5060847;28;20406;-77
2022/11/08 12:35:01;;;;;;;3.27;1.97;;;17.20;1.00;;;;;;5051704;28;20439;-84
2022/11/08 12:37:37;;;;;;;2.27;1.60;;;17.10;1.00;;;;;;5050624;28;20399;-83
2022/11/08 12:40:50;;;;;;;2.10;1.60;;;17.00;1.00;;;;;;5045466;28;20501;-83
2022/11/08 12:43:51;;;;;;;2.83;1.77;;;17.10;1.00;;;;;;5046455;28;20440;-82
2022/11/08 12:46:56;;;;;;;5.13;2.10;;;17.30;1.00;;;;;;5038403;28;20934;-83
2022/11/08 12:49:30;;;;;;;2.13;1.40;;;17.40;1.00;;;;;;5052409;28;20430;-76
2022/11/08 12:52:02;;;;;;;2.73;1.47;;;17.50;1.00;;;;;;5038837;28;20423;-76
2022/11/08 12:54:53;;;;;;;1.73;1.10;;;17.50;1.00;;;;;;5042115;28;20422;-75
2022/11/08 12:57:27;;;;;;;2.40;1.87;;;17.50;1.00;;;;;;5047930;28;20871;-77
2022/11/08 13:00:06;;;;;;;2.60;1.40;;;17.60;1.00;;;;;;5047127;28;20395;-76
2022/11/08 13:02:36;;;;;;;5.03;1.10;;;17.70;1.00;;;;;;5040956;28;21149;-76
2022/11/08 13:12:22;;;;;;;2.27;1.23;;;17.80;1.00;;;;;;5036541;28;20776;-83
2022/11/08 13:14:49;;;;;;;1.60;1.50;;;17.70;1.00;;;;;;5042322;28;20492;-83
2022/11/08 13:17:29;;;;;;;3.10;1.40;;;17.70;1.00;;;;;;5049487;28;20409;-83
2022/11/08 13:20:32;;;;;;;1.53;1.33;;;17.50;1.00;;;;;;5041021;28;20410;-83
2022/11/08 13:22:59;;;;;;;2.20;1.20;;;17.60;1.00;;;;;;5060176;28;20421;-83
2022/11/08 13:26:02;;;;;;;3.13;1.37;;;17.80;1.00;;;;;;5039569;28;20511;-83
2022/11/08 13:28:51;;;;;;;1.90;1.50;;;17.80;1.00;;;;;;5051756;28;20424;-83
2022/11/08 13:31:27;;;;;;;1.20;1.10;;;17.80;1.00;;;;;;5053716;28;20406;-83
2022/11/08 13:34:19;;;;;;;3.90;1.80;;;17.80;1.00;;;;;;5037142;28;20410;-86
2022/11/08 13:37:00;;;;;;;3.77;1.50;;;17.80;1.00;;;;;;5039119;28;20419;-76
2022/11/08 13:39:46;;;;;;;1.47;1.20;;;17.70;1.00;;;;;;5048207;28;20425;-76
2022/11/08 13:42:21;;;;;;;1.57;1.47;;;17.70;1.00;;;;;;5050299;28;21048;-76
2022/11/08 13:44:59;;;;;;;9.70;1.30;;;17.60;1.00;;;;;;5051062;28;20561;-76
2022/11/08 13:47:52;;;;;;;4.23;1.87;;;17.50;1.00;;;;;;5044019;28;20400;-76
2022/11/08 13:50:30;;;;;;;3.73;1.60;;;17.40;1.00;;;;;;5050090;28;20387;-76
2022/11/08 13:53:18;;;;;;;2.50;1.70;;;17.30;1.00;;;;;;5056256;28;20913;-76
2022/11/08 13:55:46;;;;;;;3.83;1.37;;;17.40;1.00;;;;;;5055995;28;20775;-77
2022/11/08 13:58:33;;;;;;;2.87;1.20;;;17.10;1.00;;;;;;5043037;28;20431;-77
2022/11/08 14:01:07;;;;;;;3.70;1.37;;;17.10;1.00;;;;;;5046331;28;20513;-76
2022/11/08 14:03:45;;;;;;;2.40;1.30;;;17.20;1.00;;;;;;5050162;28;20431;-76
2022/11/08 14:06:44;;;;;;;4.23;1.83;;;17.10;1.00;;;;;;5046972;28;20441;-84
2022/11/08 14:12:43;;;;;;;1.50;1.40;;;17.20;1.00;;;;;;5054202;28;20418;-84
2022/11/08 14:15:35;;;;;;;3.10;1.40;;;17.10;1.00;;;;;;5044988;28;20423;-82
2022/11/08 14:18:27;;;;;;;2.00;1.50;;;17.00;1.00;;;;;;5050602;28;20394;-82
2022/11/08 14:20:54;;;;;;;1.30;1.20;;;17.00;1.00;;;;;;5038327;28;20436;-75
2022/11/08 14:23:20;;;;;;;3.00;1.50;;;16.80;1.00;;;;;;5054364;28;20387;-77
2022/11/08 14:26:35;;;;;;;3.27;1.53;;;16.80;1.00;;;;;;5054078;28;20441;-76
2022/11/08 14:29:13;;;;;;;3.73;1.50;;;16.70;1.00;;;;;;5010991;28;20436;-77
2022/11/08 14:32:02;;;;;;;4.37;1.67;;;16.50;1.00;;;;;;5013662;28;20388;-77
2022/11/08 14:34:37;;;;;;;4.10;1.90;;;16.50;1.00;;;;;;4990764;28;20965;-76
2022/11/08 14:37:29;;;;;;;2.90;1.60;;;16.30;1.00;;;;;;5007561;28;20499;-83
2022/11/08 14:39:57;;;;;;;2.90;1.47;;;16.30;1.00;;;;;;4995350;28;20962;-83
2022/11/08 14:42:27;;;;;;;1.57;1.47;;;16.30;1.00;;;;;;5007473;28;20621;-83
2022/11/08 14:44:55;;;;;;;1.53;1.43;;;16.30;1.00;;;;;;5012071;28;20501;-83
2022/11/08 14:47:29;;;;;;;1.37;1.27;;;16.20;1.00;;;;;;5013891;28;20407;-83
2022/11/08 14:50:14;;;;;;;2.23;1.77;;;16.10;1.00;;;;;;5013787;28;20428;-83
2022/11/08 14:52:45;;;;;;;2.33;1.50;;;15.90;1.00;;;;;;5009174;28;20891;-83
2022/11/08 14:55:13;;;;;;;9.63;2.20;;;15.90;1.00;;;;;;5013222;28;20889;-83
2022/11/08 14:58:11;;;;;;;5.07;1.73;;;15.90;1.00;;;;;;5005525;28;21089;-82
2022/11/08 15:00:43;;;;;;;2.00;1.80;;;15.70;1.00;;;;;;5013187;28;20924;-82
2022/11/08 15:03:17;;;;;;;4.93;2.50;;;15.50;1.00;;;;;;5013363;28;21031;-82
2022/11/08 15:05:59;;;;;;;2.70;1.80;;;15.40;1.00;;;;;;5040199;28;20412;-83
2022/11/08 15:09:02;;;;;;;2.47;1.53;;;15.40;1.00;;;;;;5053936;28;20393;-83
2022/11/08 15:11:39;;;;;;;2.17;1.67;;;15.40;1.00;;;;;;4961572;28;20438;-82
2022/11/08 15:14:28;;;;;;;6.30;2.20;;;15.40;1.00;;;;;;4972864;28;20404;-82
2022/11/08 15:17:03;;;;;;;4.37;1.83;;;15.40;1.00;;;;;;4969025;28;20441;-83
2022/11/08 15:20:20;;;;;;;5.93;1.73;;;15.20;1.00;;;;;;4974018;28;20752;-82
2022/11/08 15:22:47;;;;;;;2.63;1.80;;;15.20;1.00;;;;;;4973485;28;20418;-83
2022/11/08 15:25:50;;;;;;;4.50;1.73;;;15.20;1.00;;;;;;4976482;28;20554;-84
2022/11/08 15:31:58;;;;;;;2.40;1.60;;;15.00;1.00;;;;;;4972236;28;20966;-85
2022/11/08 15:37:57;;;;;;;2.03;1.50;;;14.90;1.00;;;;;;4966042;28;20433;-76
2022/11/08 15:40:29;;;;;;;1.67;1.40;;;14.80;1.00;;;;;;4971021;28;20413;-75
2022/11/08 15:42:58;;;;;;;4.37;1.43;;;14.80;1.00;;;;;;5041624;28;20402;-75
2022/11/08 15:45:51;;;;;;;3.97;1.93;;;14.70;1.00;;;;;;5034059;28;20450;-75
2022/11/08 15:48:22;;;;;;;2.20;1.60;;;14.60;1.00;;;;;;5052531;28;20995;-76
2022/11/08 15:50:57;;;;;;;5.87;1.87;;;14.50;1.00;;;;;;5045725;28;20417;-77
2022/11/08 15:53:28;;;;;;;2.83;1.80;;;14.40;1.00;;;;;;5040992;28;20409;-75
2022/11/08 15:56:00;;;;;;;22.20;2.37;;;14.30;1.00;;;;;;5039209;28;20438;-76
2022/11/08 15:58:35;;;;;;;5.63;1.63;;;14.20;1.00;;;;;;5054217;28;20766;-76
2022/11/08 16:01:29;;;;;;;3.20;2.20;;;14.10;1.00;;;;;;5054076;28;20609;-76
2022/11/08 16:04:11;;;;;;;6.93;2.53;;;14.00;1.00;;;;;;5032295;28;20449;-76
2022/11/08 16:06:39;;;;;;;5.13;2.63;;;13.90;1.00;;;;;;5046388;28;20786;-85
2022/11/08 16:09:04;;;;;;;4.70;1.97;;;13.80;1.00;;;;;;5051384;28;21021;-85
2022/11/08 16:11:40;;;;;;;7.63;1.73;;;13.80;1.00;;;;;;5038969;28;20437;-83
2022/11/08 16:14:23;;;;;;;4.17;1.90;;;13.70;1.00;;;;;;5052596;28;20175;-81
2022/11/08 16:16:58;;;;;;;2.30;1.60;;;13.60;1.00;;;;;;5047204;28;20518;-81
2022/11/08 16:19:28;;;;;;;10.20;2.07;;;13.50;1.00;;;;;;5048192;28;20425;-83
2022/11/08 16:21:54;;;;;;;2.30;1.90;;;13.50;1.00;;;;;;5048555;28;20523;-74
2022/11/08 16:24:19;;;;;;;7.07;1.90;;;13.40;1.00;;;;;;5043088;28;20427;-74
2022/11/08 16:26:46;;;;;;;3.87;1.97;;;13.30;1.00;;;;;;5050371;28;20634;-74
2022/11/08 16:29:21;;;;;;;5.73;2.07;;;13.30;1.00;;;;;;5052513;28;20206;-75
2022/11/08 16:31:52;;;;;;;5.63;2.20;;;13.20;1.00;;;;;;5045334;28;20417;-76
2022/11/08 16:34:18;;;;;;;4.73;1.90;;;13.20;1.00;;;;;;5040111;28;20413;-75
2022/11/08 16:36:48;;;;;;;2.53;1.87;;;13.10;1.00;;;;;;5046249;28;20480;-75
2022/11/08 16:39:17;;;;;;;2.83;1.67;;;13.00;1.00;;;;;;5039169;28;20504;-75
2022/11/08 16:41:43;;;;;;;9.60;1.90;;;12.90;1.00;;;;;;5045875;28;20445;-76
2022/11/08 16:44:10;;;;;;;5.53;1.73;;;12.90;1.00;;;;;;5050996;28;20463;-75
2022/11/08 16:46:36;;;;;;;3.00;1.90;;;12.90;1.00;;;;;;5042993;28;20956;-75
2022/11/08 16:49:04;;;;;;;2.50;1.83;;;12.90;1.00;;;;;;5037261;28;20414;-75
2022/11/08 16:51:30;;;;;;;2.27;2.00;;;12.80;1.00;;;;;;5043154;28;20414;-83
2022/11/08 16:54:18;;;;;;;10.10;2.40;;;12.80;1.00;;;;;;5033316;28;20505;-83
2022/11/08 17:00:35;;;;;;;3.97;1.93;;;12.70;1.00;;;;;;5048405;28;20401;-83
2022/11/08 17:03:04;;;;;;;4.50;1.97;;;12.60;1.00;;;;;;5043936;28;20832;-83
2022/11/08 17:05:34;;;;;;;1.73;1.63;;;12.60;1.00;;;;;;5055007;28;20507;-82